createdAt,value
2022-11-28T00:00:32.986Z,14.70
2022-11-28T00:03:35.965Z,12.90
2022-11-28T00:06:47.032Z,13.20
2022-11-28T00:09:50.361Z,13.20
2022-11-28T00:12:53.405Z,12.77
2022-11-28T00:16:00.246Z,13.38
2022-11-28T00:19:03.588Z,12.05
2022-11-28T00:22:06.154Z,13.37
2022-11-28T00:25:08.796Z,12.85
2022-11-28T00:28:11.269Z,13.07
2022-11-28T00:31:20.778Z,13.10
2022-11-28T00:34:24.367Z,12.13
2022-11-28T00:37:27.937Z,12.97
2022-11-28T00:40:30.569Z,12.13
2022-11-28T00:43:34.371Z,11.95
2022-11-28T00:46:37.027Z,11.98
2022-11-28T00:49:39.571Z,12.50
2022-11-28T00:52:42.097Z,12.40
2022-11-28T00:55:44.594Z,11.93
2022-11-28T00:58:49.723Z,11.80
2022-11-28T01:01:53.416Z,12.02
2022-11-28T01:04:56.989Z,11.85
2022-11-28T01:07:59.602Z,12.10
2022-11-28T01:11:02.571Z,11.52
2022-11-28T01:14:06.041Z,10.68
2022-11-28T01:17:09.465Z,10.68
2022-11-28T01:20:12.499Z,11.95
2022-11-28T01:23:18.549Z,11.20
2022-11-28T01:26:27.637Z,11.48
2022-11-28T01:29:30.109Z,11.60
2022-11-28T01:32:32.641Z,11.40
2022-11-28T01:35:35.981Z,11.65
2022-11-28T01:38:40.001Z,9.97
2022-11-28T01:41:42.866Z,11.85
2022-11-28T01:44:48.409Z,12.02
2022-11-28T01:47:53.872Z,12.77
2022-11-28T01:51:01.023Z,11.10
2022-11-28T01:54:04.621Z,11.37
2022-11-28T01:57:12.774Z,11.52
2022-11-28T02:00:20.971Z,11.85
2022-11-28T02:03:30.260Z,11.80
2022-11-28T02:06:33.819Z,11.77
2022-11-28T02:09:37.120Z,10.20
2022-11-28T02:12:48.302Z,10.65
2022-11-28T02:16:05.561Z,12.20
2022-11-28T02:19:17.725Z,11.85
2022-11-28T02:22:59.334Z,12.13
2022-11-28T02:26:40.042Z,11.63
2022-11-28T02:29:59.342Z,10.68
2022-11-28T02:33:14.248Z,11.63
2022-11-28T02:36:59.644Z,11.27
2022-11-28T02:40:42.867Z,11.02
2022-11-28T02:43:59.288Z,11.67
2022-11-28T02:47:18.944Z,9.25
2022-11-28T02:50:28.643Z,10.30
2022-11-28T02:53:34.166Z,11.20
2022-11-28T02:56:36.954Z,10.95
2022-11-28T02:59:43.045Z,10.60
2022-11-28T03:03:00.452Z,10.32
2022-11-28T03:06:21.710Z,9.73
2022-11-28T03:09:45.405Z,9.93
2022-11-28T03:12:57.310Z,9.80
2022-11-28T03:16:19.379Z,11.20
2022-11-28T03:19:30.931Z,9.75
2022-11-28T03:22:40.686Z,9.45
2022-11-28T03:26:04.076Z,9.88
2022-11-28T03:29:16.457Z,9.93
2022-11-28T03:32:26.795Z,9.43
2022-11-28T03:35:34.571Z,10.40
2022-11-28T03:38:42.785Z,9.57
2022-11-28T03:41:55.221Z,9.90
2022-11-28T03:45:24.115Z,9.32
2022-11-28T03:48:31.959Z,10.10
2022-11-28T03:51:46.794Z,11.82
2022-11-28T03:54:55.589Z,10.43
2022-11-28T03:58:07.368Z,10.50
2022-11-28T04:01:32.137Z,11.57
2022-11-28T04:04:38.264Z,10.03
2022-11-28T04:07:50.486Z,10.13
2022-11-28T04:10:58.654Z,10.02
2022-11-28T04:14:25.283Z,10.65
2022-11-28T04:17:39.945Z,9.98
2022-11-28T04:21:04.929Z,10.37
2022-11-28T04:24:14.939Z,9.70
2022-11-28T04:27:23.465Z,10.13
2022-11-28T04:30:27.779Z,10.48
2022-11-28T04:33:36.527Z,9.85
2022-11-28T04:36:43.465Z,10.60
2022-11-28T04:39:49.168Z,9.88
2022-11-28T04:43:01.292Z,11.50
2022-11-28T04:46:25.231Z,10.10
2022-11-28T04:49:29.578Z,10.15
2022-11-28T04:52:53.138Z,10.17
2022-11-28T04:56:02.506Z,10.85
2022-11-28T04:59:07.637Z,11.25
2022-11-28T05:02:13.523Z,11.48
2022-11-28T05:05:23.504Z,11.10
2022-11-28T05:08:26.716Z,10.30
2022-11-28T05:11:29.456Z,11.60
2022-11-28T05:14:32.915Z,11.85
2022-11-28T05:17:41.716Z,10.93
2022-11-28T05:20:44.866Z,11.50
2022-11-28T05:23:47.340Z,11.57
2022-11-28T05:26:50.125Z,12.00
2022-11-28T05:29:53.915Z,12.27
2022-11-28T05:32:58.768Z,12.93
2022-11-28T05:36:13.139Z,14.13
2022-11-28T05:39:16.280Z,14.23
2022-11-28T05:42:20.119Z,16.08
2022-11-28T05:45:22.820Z,14.43
2022-11-28T05:48:25.602Z,15.35
2022-11-28T05:51:28.955Z,14.73
2022-11-28T05:54:32.189Z,14.80
2022-11-28T05:57:37.842Z,15.15
2022-11-28T06:00:40.552Z,15.00
2022-11-28T06:03:43.874Z,15.10
2022-11-28T06:06:46.490Z,15.50
2022-11-28T06:09:50.018Z,15.43
2022-11-28T06:12:53.251Z,16.48
2022-11-28T06:15:56.268Z,15.73
2022-11-28T06:19:04.286Z,16.70
2022-11-28T06:22:07.345Z,15.35
2022-11-28T06:25:10.378Z,16.20
2022-11-28T06:28:12.824Z,16.90
2022-11-28T06:31:23.121Z,17.15
2022-11-28T06:34:27.164Z,16.13
2022-11-28T06:37:30.661Z,16.80
2022-11-28T06:40:34.642Z,15.37
2022-11-28T06:43:38.488Z,15.85
2022-11-28T06:46:43.945Z,15.45
2022-11-28T06:49:49.482Z,14.75
2022-11-28T06:52:55.040Z,15.63
2022-11-28T06:56:01.669Z,15.23
2022-11-28T06:59:04.577Z,50.40
2022-11-28T07:02:09.493Z,15.30
2022-11-28T07:05:15.243Z,18.02
2022-11-28T07:08:21.696Z,16.45
2022-11-28T07:11:28.149Z,15.93
2022-11-28T07:14:33.668Z,16.92
2022-11-28T07:17:40.033Z,17.45
2022-11-28T07:20:45.969Z,16.67
2022-11-28T07:23:49.560Z,16.92
2022-11-28T07:26:52.167Z,17.47
2022-11-28T07:29:54.899Z,16.92
2022-11-28T07:32:58.659Z,16.25
2022-11-28T07:36:07.473Z,15.55
2022-11-28T07:39:13.771Z,15.70
2022-11-28T07:42:17.063Z,15.43
2022-11-28T07:45:53.476Z,15.80
2022-11-28T07:48:54.270Z,22.27
2022-11-28T07:51:58.782Z,17.13
2022-11-28T07:55:01.973Z,17.17
2022-11-28T07:58:05.816Z,14.07
2022-11-28T08:01:14.231Z,14.65
2022-11-28T08:04:17.501Z,13.68
2022-11-28T08:07:20.543Z,13.68
2022-11-28T08:10:23.313Z,13.88
2022-11-28T08:13:28.102Z,13.80
2022-11-28T08:16:32.722Z,12.65
2022-11-28T08:19:35.829Z,13.25
2022-11-28T08:22:38.800Z,14.13
2022-11-28T08:25:41.683Z,13.13
2022-11-28T08:28:45.420Z,12.83
2022-11-28T08:31:49.027Z,12.27
2022-11-28T08:34:52.088Z,12.68
2022-11-28T08:38:00.390Z,12.43
2022-11-28T08:41:10.813Z,10.18
2022-11-28T08:44:18.310Z,11.60
2022-11-28T08:47:21.473Z,21.15
2022-11-28T08:50:27.430Z,10.98
2022-11-28T08:53:30.600Z,9.48
2022-11-28T08:56:36.619Z,8.52
2022-11-28T08:59:39.648Z,8.97
2022-11-28T09:02:42.665Z,8.85
2022-11-28T09:05:47.477Z,8.90
2022-11-28T09:08:53.634Z,9.60
2022-11-28T09:11:59.768Z,10.70
2022-11-28T09:15:06.130Z,10.73
2022-11-28T09:18:09.438Z,11.35
2022-11-28T09:21:15.023Z,11.68
2022-11-28T09:24:18.905Z,12.70
2022-11-28T09:27:21.494Z,12.60
2022-11-28T09:30:26.791Z,11.60
2022-11-28T09:33:30.651Z,11.70
2022-11-28T09:36:33.802Z,13.00
2022-11-28T09:39:50.605Z,18.85
2022-11-28T09:43:11.217Z,25.38
2022-11-28T09:46:24.902Z,21.27
2022-11-28T09:49:40.588Z,11.07
2022-11-28T09:52:53.706Z,12.25
2022-11-28T09:56:00.512Z,10.98
2022-11-28T09:59:23.525Z,11.52
2022-11-28T10:02:35.155Z,11.27
2022-11-28T10:05:52.293Z,12.18
2022-11-28T10:09:47.978Z,12.13
2022-11-28T10:13:14.616Z,12.02
2022-11-28T10:21:20.242Z,11.33
2022-11-28T10:24:37.998Z,12.40
2022-11-28T10:28:05.621Z,11.55
2022-11-28T10:31:35.667Z,12.35
2022-11-28T10:45:56.903Z,12.05
2022-11-28T10:49:49.323Z,12.35
2022-11-28T10:53:23.732Z,12.30
2022-11-28T10:57:38.719Z,11.85
2022-11-28T11:00:49.458Z,12.90
2022-11-28T11:03:56.795Z,12.60
2022-11-28T11:07:54.799Z,13.68
2022-11-28T11:11:45.769Z,15.48
2022-11-28T11:15:33.943Z,15.32
2022-11-28T11:19:00.692Z,12.13
2022-11-28T11:22:14.412Z,14.88
2022-11-28T11:25:46.732Z,13.25
2022-11-28T11:28:51.260Z,12.52
2022-11-28T11:32:04.124Z,12.30
2022-11-28T11:35:43.584Z,13.60
2022-11-28T11:43:38.022Z,11.52
2022-11-28T11:47:11.317Z,11.55
2022-11-28T11:50:35.693Z,12.40
2022-11-28T11:53:46.373Z,12.50
2022-11-28T11:57:32.398Z,12.88
2022-11-28T12:00:47.907Z,14.18
2022-11-28T12:04:37.209Z,26.42
2022-11-28T12:07:40.028Z,43.30
2022-11-28T12:11:22.241Z,35.90
2022-11-28T12:14:55.855Z,12.15
2022-11-28T12:18:35.394Z,12.73
2022-11-28T12:22:06.273Z,13.27
2022-11-28T12:25:23.311Z,13.00
2022-11-28T12:29:15.396Z,12.57
2022-11-28T12:32:28.658Z,12.88
2022-11-28T12:35:39.768Z,12.68
2022-11-28T12:39:14.854Z,12.73
2022-11-28T12:42:34.544Z,13.43
2022-11-28T12:46:03.166Z,13.53
2022-11-28T12:50:01.016Z,13.73
2022-11-28T12:53:35.026Z,14.80
2022-11-28T12:57:03.199Z,13.55
2022-11-28T13:00:30.044Z,28.92
2022-11-28T13:04:28.882Z,35.83
2022-11-28T13:08:12.744Z,15.70
2022-11-28T13:11:55.555Z,13.75
2022-11-28T13:15:18.158Z,15.10
2022-11-28T13:18:48.209Z,13.77
2022-11-28T13:22:03.333Z,13.83
2022-11-28T13:25:32.904Z,13.27
2022-11-28T13:29:14.882Z,12.32
2022-11-28T13:32:47.599Z,13.05
2022-11-28T13:40:24.261Z,12.63
2022-11-28T13:43:30.673Z,13.52
2022-11-28T13:46:35.159Z,13.90
2022-11-28T13:49:46.193Z,14.02
2022-11-28T13:57:45.928Z,15.87
2022-11-28T14:01:12.960Z,17.38
2022-11-28T14:05:27.148Z,14.77
2022-11-28T14:08:57.009Z,14.10
2022-11-28T14:12:08.115Z,14.63
2022-11-28T14:15:36.322Z,31.30
2022-11-28T14:19:15.696Z,13.60
2022-11-28T14:22:45.590Z,14.90
2022-11-28T14:25:52.578Z,15.32
2022-11-28T14:29:04.421Z,15.65
2022-11-28T14:32:39.951Z,19.60
2022-11-28T14:35:53.381Z,16.15
2022-11-28T14:39:20.239Z,14.98
2022-11-28T14:42:58.083Z,18.50
2022-11-28T14:45:50.611Z,14.65
2022-11-28T14:49:00.803Z,14.90
2022-11-28T14:52:39.563Z,15.02
2022-11-28T14:55:47.759Z,13.50
2022-11-28T14:59:28.850Z,16.33
2022-11-28T15:03:04.886Z,15.32
2022-11-28T15:06:23.172Z,15.27
2022-11-28T15:09:49.776Z,16.08
2022-11-28T15:13:19.260Z,16.48
2022-11-28T15:16:32.499Z,17.08
2022-11-28T15:19:46.110Z,16.50
2022-11-28T15:22:59.724Z,13.93
2022-11-28T15:26:42.954Z,15.88
2022-11-28T15:29:58.763Z,15.48
2022-11-28T15:33:06.085Z,16.35
2022-11-28T15:36:29.959Z,16.13
2022-11-28T15:39:44.824Z,15.40
2022-11-28T15:42:50.652Z,15.70
2022-11-28T15:46:01.645Z,16.92
2022-11-28T15:49:06.743Z,18.38
2022-11-28T15:52:20.307Z,17.83
2022-11-28T15:55:26.905Z,17.63
2022-11-28T15:58:38.298Z,18.02
2022-11-28T16:02:02.619Z,17.88
2022-11-28T16:05:30.513Z,18.15
2022-11-28T16:08:40.504Z,18.30
2022-11-28T16:12:02.634Z,18.60
2022-11-28T16:15:35.564Z,20.27
2022-11-28T16:19:03.554Z,18.80
2022-11-28T16:22:23.919Z,18.15
2022-11-28T16:25:45.340Z,15.98
2022-11-28T16:29:17.812Z,17.70
2022-11-28T16:32:38.612Z,17.85
2022-11-28T16:35:52.582Z,17.50
2022-11-28T16:39:13.662Z,17.60
2022-11-28T16:42:18.847Z,26.10
2022-11-28T16:45:32.787Z,19.03
2022-11-28T16:48:38.626Z,18.15
2022-11-28T16:52:09.220Z,17.75
2022-11-28T16:55:47.357Z,16.75
2022-11-28T16:59:27.543Z,17.75
2022-11-28T17:02:43.533Z,17.87
2022-11-28T17:06:06.267Z,16.73
2022-11-28T17:09:22.795Z,20.27
2022-11-28T17:12:46.367Z,17.52
2022-11-28T17:16:06.425Z,17.60
2022-11-28T17:19:16.332Z,19.30
2022-11-28T17:22:51.337Z,21.77
2022-11-28T17:26:07.357Z,18.48
2022-11-28T17:29:29.406Z,18.00
2022-11-28T17:32:37.000Z,19.48
2022-11-28T17:35:57.445Z,19.83
2022-11-28T17:39:17.385Z,18.80
2022-11-28T17:42:20.483Z,18.25
2022-11-28T17:45:31.264Z,19.83
2022-11-28T17:48:52.928Z,21.77
2022-11-28T17:52:16.144Z,25.00
2022-11-28T17:55:36.058Z,23.85
2022-11-28T17:58:56.157Z,23.00
2022-11-28T18:02:04.473Z,18.17
2022-11-28T18:05:20.111Z,19.15
2022-11-28T18:08:43.106Z,18.83
2022-11-28T18:11:47.037Z,19.58
2022-11-28T18:15:03.521Z,19.52
2022-11-28T18:18:19.422Z,21.00
2022-11-28T18:21:42.127Z,19.20
2022-11-28T18:25:00.427Z,19.93
2022-11-28T18:28:30.006Z,21.63
2022-11-28T18:31:53.635Z,20.77
2022-11-28T18:35:16.035Z,19.02
2022-11-28T18:38:39.993Z,21.23
2022-11-28T18:42:05.547Z,19.70
2022-11-28T18:45:22.483Z,20.20
2022-11-28T18:48:40.085Z,20.27
2022-11-28T18:52:02.445Z,21.60
2022-11-28T18:55:26.045Z,19.98
2022-11-28T18:58:49.483Z,19.37
2022-11-28T19:02:24.923Z,20.10
2022-11-28T19:05:39.455Z,20.05
2022-11-28T19:08:53.646Z,20.13
2022-11-28T19:11:56.642Z,20.15
2022-11-28T19:15:02.581Z,18.73
2022-11-28T19:18:09.521Z,20.48
2022-11-28T19:21:35.435Z,19.30
2022-11-28T19:24:52.132Z,20.27
2022-11-28T19:28:07.998Z,20.83
2022-11-28T19:31:34.150Z,18.70
2022-11-28T19:34:55.880Z,18.80
2022-11-28T19:38:15.881Z,19.77
2022-11-28T19:41:35.822Z,18.55
2022-11-28T19:44:55.998Z,20.98
2022-11-28T19:48:12.057Z,20.70
2022-11-28T19:51:20.818Z,20.65
2022-11-28T19:54:30.115Z,20.83
2022-11-28T19:57:51.691Z,19.75
2022-11-28T20:01:15.813Z,20.02
2022-11-28T20:04:27.933Z,21.30
2022-11-28T20:07:44.242Z,20.63
2022-11-28T20:11:20.593Z,19.45
2022-11-28T20:14:43.910Z,19.90
2022-11-28T20:18:08.578Z,21.05
2022-11-28T20:21:28.585Z,20.40
2022-11-28T20:24:51.747Z,18.90
2022-11-28T20:28:08.954Z,21.20
2022-11-28T20:31:40.709Z,19.27
2022-11-28T20:35:05.738Z,20.77
2022-11-28T20:38:20.912Z,21.47
2022-11-28T20:41:26.094Z,20.75
2022-11-28T20:44:30.004Z,20.33
2022-11-28T20:47:41.081Z,21.67
2022-11-28T20:50:52.075Z,21.23
2022-11-28T20:54:15.834Z,20.03
2022-11-28T20:57:51.587Z,20.55
2022-11-28T21:01:12.739Z,21.92
2022-11-28T21:04:33.186Z,19.17
2022-11-28T21:07:42.231Z,19.00
2022-11-28T21:10:58.599Z,19.00
2022-11-28T21:14:03.369Z,17.70
2022-11-28T21:17:08.013Z,20.27
2022-11-28T21:20:30.608Z,17.67
2022-11-28T21:23:45.736Z,18.58
2022-11-28T21:27:08.622Z,18.17
2022-11-28T21:30:15.946Z,18.48
2022-11-28T21:33:19.529Z,19.35
2022-11-28T21:36:34.318Z,20.95
2022-11-28T21:39:44.430Z,20.15
2022-11-28T21:43:07.547Z,18.67
2022-11-28T21:46:41.263Z,18.38
2022-11-28T21:50:02.217Z,18.50
2022-11-28T21:53:18.651Z,18.33
2022-11-28T21:56:28.013Z,17.48
2022-11-28T21:59:43.741Z,17.77
2022-11-28T22:03:14.469Z,18.10
2022-11-28T22:06:39.537Z,17.52
2022-11-28T22:10:14.468Z,17.73
2022-11-28T22:13:35.630Z,17.55
2022-11-28T22:16:50.256Z,16.97
2022-11-28T22:20:13.660Z,18.02
2022-11-28T22:23:47.307Z,16.95
2022-11-28T22:27:09.330Z,16.42
2022-11-28T22:30:12.608Z,17.83
2022-11-28T22:33:16.292Z,16.97
2022-11-28T22:36:27.924Z,16.92
2022-11-28T22:39:31.111Z,16.73
2022-11-28T22:42:41.041Z,16.67
2022-11-28T22:45:44.846Z,17.80
2022-11-28T22:48:48.561Z,16.57
2022-11-28T22:51:52.283Z,17.85
2022-11-28T22:55:15.559Z,17.90
2022-11-28T22:58:40.968Z,17.40
2022-11-28T23:01:54.038Z,17.65
2022-11-28T23:05:15.790Z,16.47
2022-11-28T23:08:29.112Z,17.50
2022-11-28T23:11:55.237Z,17.60
2022-11-28T23:15:14.039Z,15.35
2022-11-28T23:18:37.931Z,14.90
2022-11-28T23:21:44.601Z,15.37
2022-11-28T23:24:54.497Z,15.80
2022-11-28T23:28:07.576Z,15.40
2022-11-28T23:31:30.591Z,14.85
2022-11-28T23:34:47.892Z,14.55
2022-11-28T23:38:08.375Z,14.27
2022-11-28T23:41:19.299Z,14.23
2022-11-28T23:44:23.356Z,13.82
2022-11-28T23:47:26.416Z,13.50
2022-11-28T23:50:49.232Z,13.50
2022-11-28T23:54:16.469Z,13.37
2022-11-28T23:57:38.704Z,13.25
